sensor_id;sensor_type;location;lat;lon;timestamp;P1;durP1;ratioP1;P2;durP2;ratioP2
4084;SDS011;2057;50.858;6.572;2023-03-01T00:01:38;12.27;;;7.80;;
4084;SDS011;2057;50.858;6.572;2023-03-01T00:04:03;20.23;;;9.17;;
4084;SDS011;2057;50.858;6.572;2023-03-01T00:06:28;15.07;;;8.97;;
4084;SDS011;2057;50.858;6.572;2023-03-01T00:08:54;13.10;;;8.50;;
4084;SDS011;2057;50.858;6.572;2023-03-01T00:11:26;16.00;;;8.35;;
4084;SDS011;2057;50.858;6.572;2023-03-01T00:13:55;17.92;;;8.75;;
4084;SDS011;2057;50.858;6.572;2023-03-01T00:16:23;20.45;;;8.95;;
4084;SDS011;2057;50.858;6.572;2023-03-01T00:18:51;16.45;;;7.93;;
4084;SDS011;2057;50.858;6.572;2023-03-01T00:21:19;13.25;;;8.98;;
4084;SDS011;2057;50.858;6.572;2023-03-01T00:23:46;11.82;;;8.00;;
4084;SDS011;2057;50.858;6.572;2023-03-01T00:26:13;14.80;;;7.03;;
4084;SDS011;2057;50.858;6.572;2023-03-01T00:28:39;25.37;;;9.10;;
4084;SDS011;2057;50.858;6.572;2023-03-01T00:31:05;10.17;;;7.47;;
4084;SDS011;2057;50.858;6.572;2023-03-01T00:33:32;12.98;;;7.85;;
4084;SDS011;2057;50.858;6.572;2023-03-01T00:35:58;11.10;;;7.30;;
4084;SDS011;2057;50.858;6.572;2023-03-01T00:38:24;16.00;;;7.95;;
4084;SDS011;2057;50.858;6.572;2023-03-01T00:40:49;17.23;;;9.37;;
4084;SDS011;2057;50.858;6.572;2023-03-01T00:43:15;19.53;;;7.50;;
4084;SDS011;2057;50.858;6.572;2023-03-01T00:45:40;13.70;;;8.10;;
4084;SDS011;2057;50.858;6.572;2023-03-01T00:48:05;16.10;;;8.70;;
4084;SDS011;2057;50.858;6.572;2023-03-01T00:50:33;15.07;;;7.77;;
4084;SDS011;2057;50.858;6.572;2023-03-01T00:52:59;15.88;;;8.88;;
4084;SDS011;2057;50.858;6.572;2023-03-01T00:55:25;13.77;;;7.97;;
4084;SDS011;2057;50.858;6.572;2023-03-01T00:57:51;15.25;;;7.28;;
4084;SDS011;2057;50.858;6.572;2023-03-01T01:00:16;15.47;;;7.53;;
4084;SDS011;2057;50.858;6.572;2023-03-01T01:02:42;11.13;;;7.57;;
4084;SDS011;2057;50.858;6.572;2023-03-01T01:05:08;14.07;;;9.27;;
4084;SDS011;2057;50.858;6.572;2023-03-01T01:07:34;19.30;;;8.80;;
4084;SDS011;2057;50.858;6.572;2023-03-01T01:09:59;15.63;;;7.70;;
4084;SDS011;2057;50.858;6.572;2023-03-01T01:12:25;10.50;;;7.90;;
4084;SDS011;2057;50.858;6.572;2023-03-01T01:14:50;13.30;;;8.70;;
4084;SDS011;2057;50.858;6.572;2023-03-01T01:17:15;15.33;;;9.43;;
4084;SDS011;2057;50.858;6.572;2023-03-01T01:19:41;14.00;;;8.30;;
4084;SDS011;2057;50.858;6.572;2023-03-01T01:22:06;19.23;;;9.27;;
4084;SDS011;2057;50.858;6.572;2023-03-01T01:24:31;14.13;;;8.20;;
4084;SDS011;2057;50.858;6.572;2023-03-01T01:26:57;15.07;;;9.07;;
4084;SDS011;2057;50.858;6.572;2023-03-01T01:29:22;31.50;;;8.80;;
4084;SDS011;2057;50.858;6.572;2023-03-01T01:31:48;14.60;;;8.00;;
4084;SDS011;2057;50.858;6.572;2023-03-01T01:34:17;20.27;;;8.67;;
4084;SDS011;2057;50.858;6.572;2023-03-01T01:36:47;14.65;;;8.00;;
4084;SDS011;2057;50.858;6.572;2023-03-01T01:39:20;12.60;;;8.27;;
4084;SDS011;2057;50.858;6.572;2023-03-01T01:41:46;22.85;;;9.00;;
4084;SDS011;2057;50.858;6.572;2023-03-01T01:49:22;15.15;;;8.43;;
4084;SDS011;2057;50.858;6.572;2023-03-01T01:51:49;12.15;;;7.85;;
4084;SDS011;2057;50.858;6.572;2023-03-01T01:54:24;16.58;;;8.95;;
4084;SDS011;2057;50.858;6.572;2023-03-01T01:56:59;15.85;;;9.00;;
4084;SDS011;2057;50.858;6.572;2023-03-01T01:59:28;15.75;;;8.30;;
4084;SDS011;2057;50.858;6.572;2023-03-01T02:01:59;16.52;;;9.68;;
4084;SDS011;2057;50.858;6.572;2023-03-01T02:04:28;16.42;;;9.68;;
4084;SDS011;2057;50.858;6.572;2023-03-01T02:06:59;16.95;;;9.05;;
4084;SDS011;2057;50.858;6.572;2023-03-01T02:09:29;20.00;;;8.52;;
4084;SDS011;2057;50.858;6.572;2023-03-01T02:11:56;17.48;;;8.00;;
4084;SDS011;2057;50.858;6.572;2023-03-01T02:14:22;13.63;;;9.03;;
4084;SDS011;2057;50.858;6.572;2023-03-01T02:16:51;19.73;;;10.35;;
4084;SDS011;2057;50.858;6.572;2023-03-01T02:19:20;16.60;;;8.60;;
4084;SDS011;2057;50.858;6.572;2023-03-01T02:22:04;18.65;;;9.65;;
4084;SDS011;2057;50.858;6.572;2023-03-01T02:24:40;14.73;;;7.50;;
4084;SDS011;2057;50.858;6.572;2023-03-01T02:27:19;20.38;;;9.98;;
4084;SDS011;2057;50.858;6.572;2023-03-01T02:29:51;12.48;;;8.48;;
4084;SDS011;2057;50.858;6.572;2023-03-01T02:32:17;15.20;;;8.17;;
4084;SDS011;2057;50.858;6.572;2023-03-01T02:34:50;10.40;;;7.18;;
4084;SDS011;2057;50.858;6.572;2023-03-01T02:37:17;18.13;;;8.60;;
4084;SDS011;2057;50.858;6.572;2023-03-01T02:39:49;12.40;;;8.45;;
4084;SDS011;2057;50.858;6.572;2023-03-01T02:42:23;15.43;;;8.88;;
4084;SDS011;2057;50.858;6.572;2023-03-01T02:44:51;14.80;;;9.32;;
4084;SDS011;2057;50.858;6.572;2023-03-01T02:47:17;17.30;;;8.40;;
4084;SDS011;2057;50.858;6.572;2023-03-01T02:49:42;15.47;;;8.17;;
4084;SDS011;2057;50.858;6.572;2023-03-01T02:52:28;16.10;;;8.37;;
4084;SDS011;2057;50.858;6.572;2023-03-01T02:55:21;13.40;;;7.68;;
4084;SDS011;2057;50.858;6.572;2023-03-01T02:57:47;13.70;;;8.53;;
4084;SDS011;2057;50.858;6.572;2023-03-01T03:00:20;17.02;;;7.90;;
4084;SDS011;2057;50.858;6.572;2023-03-01T03:02:52;33.08;;;9.25;;
4084;SDS011;2057;50.858;6.572;2023-03-01T03:05:29;15.45;;;9.60;;
4084;SDS011;2057;50.858;6.572;2023-03-01T03:07:56;13.55;;;7.80;;
4084;SDS011;2057;50.858;6.572;2023-03-01T03:10:46;13.35;;;8.30;;
4084;SDS011;2057;50.858;6.572;2023-03-01T03:13:12;13.20;;;7.80;;
4084;SDS011;2057;50.858;6.572;2023-03-01T03:15:40;14.25;;;8.25;;
4084;SDS011;2057;50.858;6.572;2023-03-01T03:18:08;12.88;;;7.65;;
4084;SDS011;2057;50.858;6.572;2023-03-01T03:20:35;11.50;;;8.00;;
4084;SDS011;2057;50.858;6.572;2023-03-01T03:23:02;21.08;;;8.60;;
4084;SDS011;2057;50.858;6.572;2023-03-01T03:25:30;14.60;;;8.70;;
4084;SDS011;2057;50.858;6.572;2023-03-01T03:27:56;15.30;;;9.20;;
4084;SDS011;2057;50.858;6.572;2023-03-01T03:30:23;12.73;;;8.02;;
4084;SDS011;2057;50.858;6.572;2023-03-01T03:32:51;13.00;;;7.50;;
4084;SDS011;2057;50.858;6.572;2023-03-01T03:35:23;16.13;;;8.38;;
4084;SDS011;2057;50.858;6.572;2023-03-01T03:37:51;14.93;;;8.60;;
4084;SDS011;2057;50.858;6.572;2023-03-01T03:42:59;14.90;;;9.07;;
4084;SDS011;2057;50.858;6.572;2023-03-01T03:45:24;10.87;;;7.23;;
4084;SDS011;2057;50.858;6.572;2023-03-01T03:47:49;14.70;;;9.03;;
4084;SDS011;2057;50.858;6.572;2023-03-01T03:50:16;9.33;;;7.10;;
4084;SDS011;2057;50.858;6.572;2023-03-01T03:52:42;14.77;;;8.63;;
4084;SDS011;2057;50.858;6.572;2023-03-01T03:55:12;17.02;;;9.10;;
4084;SDS011;2057;50.858;6.572;2023-03-01T03:57:44;15.98;;;8.00;;
4084;SDS011;2057;50.858;6.572;2023-03-01T04:00:16;20.52;;;8.40;;
4084;SDS011;2057;50.858;6.572;2023-03-01T04:02:43;11.93;;;8.40;;
4084;SDS011;2057;50.858;6.572;2023-03-01T04:05:12;27.27;;;9.23;;
4084;SDS011;2057;50.858;6.572;2023-03-01T04:07:40;14.73;;;8.60;;
4084;SDS011;2057;50.858;6.572;2023-03-01T04:10:07;21.92;;;8.20;;
4084;SDS011;2057;50.858;6.572;2023-03-01T04:12:37;12.85;;;8.23;;
4084;SDS011;2057;50.858;6.572;2023-03-01T04:15:03;17.70;;;9.00;;
4084;SDS011;2057;50.858;6.572;2023-03-01T04:17:38;14.40;;;9.23;;
4084;SDS011;2057;50.858;6.572;2023-03-01T04:20:13;19.25;;;9.25;;
4084;SDS011;2057;50.858;6.572;2023-03-01T04:22:51;12.20;;;8.10;;
4084;SDS011;2057;50.858;6.572;2023-03-01T04:25:22;16.38;;;9.20;;
4084;SDS011;2057;50.858;6.572;2023-03-01T04:27:48;23.60;;;9.73;;
4084;SDS011;2057;50.858;6.572;2023-03-01T04:30:13;22.07;;;9.13;;
4084;SDS011;2057;50.858;6.572;2023-03-01T04:32:39;16.00;;;9.10;;
4084;SDS011;2057;50.858;6.572;2023-03-01T04:35:04;15.40;;;8.73;;
4084;SDS011;2057;50.858;6.572;2023-03-01T04:37:29;15.53;;;9.70;;
4084;SDS011;2057;50.858;6.572;2023-03-01T04:39:57;19.57;;;9.10;;
4084;SDS011;2057;50.858;6.572;2023-03-01T04:42:23;15.52;;;8.90;;
4084;SDS011;2057;50.858;6.572;2023-03-01T04:44:48;16.33;;;9.93;;
4084;SDS011;2057;50.858;6.572;2023-03-01T04:47:16;15.35;;;9.07;;
4084;SDS011;2057;50.858;6.572;2023-03-01T04:49:44;22.38;;;9.52;;
4084;SDS011;2057;50.858;6.572;2023-03-01T04:52:09;18.27;;;10.13;;
4084;SDS011;2057;50.858;6.572;2023-03-01T04:54:35;16.90;;;9.77;;
4084;SDS011;2057;50.858;6.572;2023-03-01T04:57:01;18.20;;;10.50;;
4084;SDS011;2057;50.858;6.572;2023-03-01T04:59:27;24.30;;;9.25;;
4084;SDS011;2057;50.858;6.572;2023-03-01T05:01:53;19.70;;;9.83;;
4084;SDS011;2057;50.858;6.572;2023-03-01T05:04:23;16.13;;;9.77;;
4084;SDS011;2057;50.858;6.572;2023-03-01T05:06:49;18.38;;;10.60;;
4084;SDS011;2057;50.858;6.572;2023-03-01T05:09:15;22.73;;;9.68;;
4084;SDS011;2057;50.858;6.572;2023-03-01T05:11:41;15.55;;;9.05;;
4084;SDS011;2057;50.858;6.572;2023-03-01T05:14:10;17.90;;;9.95;;
4084;SDS011;2057;50.858;6.572;2023-03-01T05:16:38;20.23;;;10.13;;
4084;SDS011;2057;50.858;6.572;2023-03-01T05:19:03;13.75;;;8.90;;
4084;SDS011;2057;50.858;6.572;2023-03-01T05:21:36;23.42;;;9.98;;
4084;SDS011;2057;50.858;6.572;2023-03-01T05:24:23;21.95;;;9.55;;
4084;SDS011;2057;50.858;6.572;2023-03-01T05:26:49;16.00;;;9.02;;
4084;SDS011;2057;50.858;6.572;2023-03-01T05:29:16;14.00;;;9.02;;
4084;SDS011;2057;50.858;6.572;2023-03-01T05:31:43;25.70;;;10.65;;
4084;SDS011;2057;50.858;6.572;2023-03-01T05:34:08;30.13;;;11.43;;
4084;SDS011;2057;50.858;6.572;2023-03-01T05:36:33;18.73;;;10.20;;
4084;SDS011;2057;50.858;6.572;2023-03-01T05:38:59;14.93;;;9.13;;
4084;SDS011;2057;50.858;6.572;2023-03-01T05:41:27;22.73;;;12.47;;
4084;SDS011;2057;50.858;6.572;2023-03-01T05:43:52;18.77;;;10.43;;
4084;SDS011;2057;50.858;6.572;2023-03-01T05:46:18;30.90;;;11.50;;
4084;SDS011;2057;50.858;6.572;2023-03-01T05:48:43;19.47;;;9.70;;
4084;SDS011;2057;50.858;6.572;2023-03-01T05:51:08;24.67;;;10.80;;
4084;SDS011;2057;50.858;6.572;2023-03-01T05:53:34;32.53;;;10.40;;
4084;SDS011;2057;50.858;6.572;2023-03-01T05:55:59;16.93;;;9.50;;
4084;SDS011;2057;50.858;6.572;2023-03-01T05:58:25;22.07;;;10.77;;
4084;SDS011;2057;50.858;6.572;2023-03-01T06:00:50;19.10;;;9.50;;
4084;SDS011;2057;50.858;6.572;2023-03-01T06:03:16;24.57;;;10.60;;
4084;SDS011;2057;50.858;6.572;2023-03-01T06:05:42;20.52;;;11.35;;
4084;SDS011;2057;50.858;6.572;2023-03-01T06:08:09;20.38;;;9.98;;
4084;SDS011;2057;50.858;6.572;2023-03-01T06:10:35;22.23;;;10.18;;
4084;SDS011;2057;50.858;6.572;2023-03-01T06:13:01;21.40;;;10.90;;
4084;SDS011;2057;50.858;6.572;2023-03-01T06:15:27;18.93;;;11.83;;
4084;SDS011;2057;50.858;6.572;2023-03-01T06:17:53;22.80;;;11.00;;
4084;SDS011;2057;50.858;6.572;2023-03-01T06:20:24;25.65;;;11.10;;
4084;SDS011;2057;50.858;6.572;2023-03-01T06:22:51;18.88;;;10.52;;
4084;SDS011;2057;50.858;6.572;2023-03-01T06:25:21;25.90;;;11.85;;
4084;SDS011;2057;50.858;6.572;2023-03-01T06:27:47;21.98;;;10.90;;
4084;SDS011;2057;50.858;6.572;2023-03-01T06:30:14;22.63;;;10.47;;
4084;SDS011;2057;50.858;6.572;2023-03-01T06:32:41;18.83;;;11.13;;
4084;SDS011;2057;50.858;6.572;2023-03-01T06:35:09;31.30;;;11.45;;
4084;SDS011;2057;50.858;6.572;2023-03-01T06:37:36;20.65;;;12.20;;
4084;SDS011;2057;50.858;6.572;2023-03-01T06:40:03;21.13;;;10.73;;
4084;SDS011;2057;50.858;6.572;2023-03-01T06:42:33;23.95;;;11.13;;
4084;SDS011;2057;50.858;6.572;2023-03-01T06:44:59;21.77;;;11.18;;
4084;SDS011;2057;50.858;6.572;2023-03-01T06:47:25;24.53;;;11.40;;
4084;SDS011;2057;50.858;6.572;2023-03-01T06:49:50;23.77;;;12.30;;
4084;SDS011;2057;50.858;6.572;2023-03-01T06:52:15;26.90;;;10.47;;
4084;SDS011;2057;50.858;6.572;2023-03-01T06:54:41;29.67;;;12.00;;
4084;SDS011;2057;50.858;6.572;2023-03-01T06:57:06;31.20;;;11.83;;
4084;SDS011;2057;50.858;6.572;2023-03-01T06:59:33;27.13;;;12.57;;
4084;SDS011;2057;50.858;6.572;2023-03-01T07:01:58;30.87;;;11.30;;
4084;SDS011;2057;50.858;6.572;2023-03-01T07:04:23;22.23;;;10.47;;
4084;SDS011;2057;50.858;6.572;2023-03-01T07:06:49;29.47;;;13.47;;
4084;SDS011;2057;50.858;6.572;2023-03-01T07:09:20;29.48;;;12.05;;
4084;SDS011;2057;50.858;6.572;2023-03-01T07:11:47;24.52;;;11.65;;
4084;SDS011;2057;50.858;6.572;2023-03-01T07:14:12;24.40;;;12.43;;
4084;SDS011;2057;50.858;6.572;2023-03-01T07:16:37;38.27;;;12.00;;
4084;SDS011;2057;50.858;6.572;2023-03-01T07:19:03;22.00;;;12.13;;
4084;SDS011;2057;50.858;6.572;2023-03-01T07:21:28;26.77;;;13.73;;
4084;SDS011;2057;50.858;6.572;2023-03-01T07:23:53;20.63;;;12.33;;
4084;SDS011;2057;50.858;6.572;2023-03-01T07:26:19;28.60;;;12.57;;
4084;SDS011;2057;50.858;6.572;2023-03-01T07:28:44;33.37;;;11.43;;
4084;SDS011;2057;50.858;6.572;2023-03-01T07:31:12;28.55;;;11.93;;
4084;SDS011;2057;50.858;6.572;2023-03-01T07:33:37;27.20;;;12.73;;
4084;SDS011;2057;50.858;6.572;2023-03-01T07:36:05;26.13;;;12.85;;
4084;SDS011;2057;50.858;6.572;2023-03-01T07:38:31;32.15;;;12.38;;
4084;SDS011;2057;50.858;6.572;2023-03-01T07:40:58;21.60;;;12.30;;
4084;SDS011;2057;50.858;6.572;2023-03-01T07:43:28;32.13;;;12.88;;
4084;SDS011;2057;50.858;6.572;2023-03-01T07:45:54;22.88;;;12.80;;
4084;SDS011;2057;50.858;6.572;2023-03-01T07:48:19;25.00;;;11.37;;
4084;SDS011;2057;50.858;6.572;2023-03-01T07:50:44;18.20;;;11.87;;
4084;SDS011;2057;50.858;6.572;2023-03-01T07:53:10;19.00;;;11.43;;
4084;SDS011;2057;50.858;6.572;2023-03-01T07:55:35;22.77;;;13.47;;
4084;SDS011;2057;50.858;6.572;2023-03-01T07:58:02;23.73;;;12.60;;
4084;SDS011;2057;50.858;6.572;2023-03-01T08:00:30;19.00;;;11.93;;
4084;SDS011;2057;50.858;6.572;2023-03-01T08:02:58;21.77;;;12.45;;
4084;SDS011;2057;50.858;6.572;2023-03-01T08:05:25;24.33;;;12.65;;
4084;SDS011;2057;50.858;6.572;2023-03-01T08:07:50;21.27;;;12.60;;
4084;SDS011;2057;50.858;6.572;2023-03-01T08:10:16;28.17;;;13.83;;
4084;SDS011;2057;50.858;6.572;2023-03-01T08:12:41;21.97;;;13.73;;
4084;SDS011;2057;50.858;6.572;2023-03-01T08:15:07;21.50;;;12.73;;
4084;SDS011;2057;50.858;6.572;2023-03-01T08:17:33;38.72;;;13.68;;
4084;SDS011;2057;50.858;6.572;2023-03-01T08:19:58;23.57;;;14.00;;
4084;SDS011;2057;50.858;6.572;2023-03-01T08:22:24;32.80;;;16.00;;
4084;SDS011;2057;50.858;6.572;2023-03-01T08:24:49;42.77;;;14.57;;
4084;SDS011;2057;50.858;6.572;2023-03-01T08:27:17;23.05;;;14.18;;
4084;SDS011;2057;50.858;6.572;2023-03-01T08:29:42;25.50;;;14.60;;
4084;SDS011;2057;50.858;6.572;2023-03-01T08:32:08;22.63;;;14.50;;
4084;SDS011;2057;50.858;6.572;2023-03-01T08:34:33;35.23;;;16.07;;
4084;SDS011;2057;50.858;6.572;2023-03-01T08:37:00;18.85;;;13.57;;
4084;SDS011;2057;50.858;6.572;2023-03-01T08:39:26;29.63;;;13.50;;
4084;SDS011;2057;50.858;6.572;2023-03-01T08:41:51;30.53;;;14.40;;
4084;SDS011;2057;50.858;6.572;2023-03-01T08:44:19;26.10;;;14.97;;
4084;SDS011;2057;50.858;6.572;2023-03-01T08:46:46;28.70;;;13.48;;
4084;SDS011;2057;50.858;6.572;2023-03-01T08:49:13;32.50;;;13.90;;
4084;SDS011;2057;50.858;6.572;2023-03-01T08:51:40;20.10;;;13.77;;
4084;SDS011;2057;50.858;6.572;2023-03-01T08:54:07;24.65;;;14.93;;
4084;SDS011;2057;50.858;6.572;2023-03-01T08:56:36;23.02;;;14.18;;
4084;SDS011;2057;50.858;6.572;2023-03-01T08:59:02;25.63;;;14.95;;
4084;SDS011;2057;50.858;6.572;2023-03-01T09:01:28;30.70;;;15.52;;
4084;SDS011;2057;50.858;6.572;2023-03-01T09:03:57;26.17;;;13.77;;
4084;SDS011;2057;50.858;6.572;2023-03-01T09:06:22;23.55;;;14.20;;
4084;SDS011;2057;50.858;6.572;2023-03-01T09:08:48;24.83;;;14.00;;
4084;SDS011;2057;50.858;6.572;2023-03-01T09:11:16;28.23;;;14.70;;
4084;SDS011;2057;50.858;6.572;2023-03-01T09:13:44;32.03;;;17.00;;
4084;SDS011;2057;50.858;6.572;2023-03-01T09:16:11;27.02;;;14.88;;
4084;SDS011;2057;50.858;6.572;2023-03-01T09:18:38;28.52;;;15.07;;
4084;SDS011;2057;50.858;6.572;2023-03-01T09:21:08;30.57;;;15.67;;
4084;SDS011;2057;50.858;6.572;2023-03-01T09:23:36;26.85;;;14.65;;
4084;SDS011;2057;50.858;6.572;2023-03-01T09:26:04;25.98;;;16.90;;
4084;SDS011;2057;50.858;6.572;2023-03-01T09:28:30;36.35;;;16.17;;
4084;SDS011;2057;50.858;6.572;2023-03-01T09:30:59;34.60;;;14.30;;
4084;SDS011;2057;50.858;6.572;2023-03-01T09:33:28;30.50;;;16.80;;
4084;SDS011;2057;50.858;6.572;2023-03-01T09:36:02;32.72;;;18.48;;
4084;SDS011;2057;50.858;6.572;2023-03-01T09:38:29;29.33;;;16.27;;
4084;SDS011;2057;50.858;6.572;2023-03-01T09:40:55;30.13;;;15.73;;
4084;SDS011;2057;50.858;6.572;2023-03-01T09:43:43;35.67;;;18.85;;
4084;SDS011;2057;50.858;6.572;2023-03-01T09:46:12;30.77;;;16.63;;
4084;SDS011;2057;50.858;6.572;2023-03-01T09:48:43;48.05;;;17.40;;
4084;SDS011;2057;50.858;6.572;2023-03-01T09:51:17;29.10;;;18.10;;
4084;SDS011;2057;50.858;6.572;2023-03-01T09:54:04;28.73;;;15.27;;
4084;SDS011;2057;50.858;6.572;2023-03-01T09:59:44;33.60;;;17.00;;
4084;SDS011;2057;50.858;6.572;2023-03-01T10:08:14;48.03;;;19.58;;
4084;SDS011;2057;50.858;6.572;2023-03-01T10:10:51;34.80;;;17.80;;
4084;SDS011;2057;50.858;6.572;2023-03-01T10:14:01;40.92;;;19.35;;
4084;SDS011;2057;50.858;6.572;2023-03-01T10:19:00;30.67;;;17.15;;
4084;SDS011;2057;50.858;6.572;2023-03-01T10:21:31;20.00;;;14.18;;
4084;SDS011;2057;50.858;6.572;2023-03-01T10:24:12;26.92;;;16.45;;
4084;SDS011;2057;50.858;6.572;2023-03-01T10:32:21;23.90;;;14.95;;
4084;SDS011;2057;50.858;6.572;2023-03-01T10:34:47;30.70;;;16.67;;
4084;SDS011;2057;50.858;6.572;2023-03-01T10:40:16;29.00;;;16.15;;
4084;SDS011;2057;50.858;6.572;2023-03-01T10:42:38;27.00;;;15.82;;
4084;SDS011;2057;50.858;6.572;2023-03-01T10:45:43;28.33;;;15.50;;
4084;SDS011;2057;50.858;6.572;2023-03-01T10:50:44;25.90;;;14.30;;
4084;SDS011;2057;50.858;6.572;2023-03-01T10:53:21;39.92;;;17.73;;
4084;SDS011;2057;50.858;6.572;2023-03-01T10:55:57;31.65;;;18.63;;
4084;SDS011;2057;50.858;6.572;2023-03-01T10:58:34;27.67;;;15.32;;
4084;SDS011;2057;50.858;6.572;2023-03-01T11:01:04;30.23;;;15.80;;
4084;SDS011;2057;50.858;6.572;2023-03-01T11:04:03;35.33;;;16.13;;
4084;SDS011;2057;50.858;6.572;2023-03-01T11:06:31;38.13;;;16.98;;
4084;SDS011;2057;50.858;6.572;2023-03-01T11:09:01;41.25;;;17.58;;
4084;SDS011;2057;50.858;6.572;2023-03-01T11:11:46;35.28;;;17.63;;
4084;SDS011;2057;50.858;6.572;2023-03-01T11:14:24;32.17;;;16.95;;
4084;SDS011;2057;50.858;6.572;2023-03-01T11:20:32;28.67;;;16.52;;
4084;SDS011;2057;50.858;6.572;2023-03-01T11:22:37;24.45;;;15.27;;
4084;SDS011;2057;50.858;6.572;2023-03-01T11:25:26;30.92;;;16.83;;
4084;SDS011;2057;50.858;6.572;2023-03-01T11:35:55;29.33;;;15.02;;
4084;SDS011;2057;50.858;6.572;2023-03-01T11:38:26;30.25;;;16.30;;
4084;SDS011;2057;50.858;6.572;2023-03-01T11:40:54;27.33;;;16.63;;
4084;SDS011;2057;50.858;6.572;2023-03-01T11:43:33;26.55;;;14.95;;
4084;SDS011;2057;50.858;6.572;2023-03-01T11:51:47;26.67;;;15.35;;
4084;SDS011;2057;50.858;6.572;2023-03-01T11:57:10;28.63;;;16.38;;
4084;SDS011;2057;50.858;6.572;2023-03-01T12:07:50;25.77;;;15.05;;
4084;SDS011;2057;50.858;6.572;2023-03-01T12:16:13;25.70;;;15.85;;
4084;SDS011;2057;50.858;6.572;2023-03-01T12:24:23;26.17;;;15.05;;
4084;SDS011;2057;50.858;6.572;2023-03-01T12:27:00;22.15;;;14.27;;
4084;SDS011;2057;50.858;6.572;2023-03-01T12:32:26;27.60;;;13.93;;
4084;SDS011;2057;50.858;6.572;2023-03-01T12:34:59;22.27;;;13.50;;
4084;SDS011;2057;50.858;6.572;2023-03-01T12:37:30;19.27;;;12.68;;
4084;SDS011;2057;50.858;6.572;2023-03-01T12:48:08;22.90;;;13.30;;
4084;SDS011;2057;50.858;6.572;2023-03-01T12:51:01;24.58;;;13.77;;
4084;SDS011;2057;50.858;6.572;2023-03-01T12:53:32;20.02;;;12.32;;
4084;SDS011;2057;50.858;6.572;2023-03-01T12:56:05;22.08;;;13.18;;
4084;SDS011;2057;50.858;6.572;2023-03-01T13:04:17;23.35;;;12.30;;
4084;SDS011;2057;50.858;6.572;2023-03-01T13:09:35;20.58;;;11.73;;
4084;SDS011;2057;50.858;6.572;2023-03-01T13:15:33;22.80;;;10.25;;
4084;SDS011;2057;50.858;6.572;2023-03-01T13:20:33;28.63;;;11.43;;
4084;SDS011;2057;50.858;6.572;2023-03-01T13:23:03;17.60;;;9.13;;
4084;SDS011;2057;50.858;6.572;2023-03-01T13:25:33;14.82;;;9.57;;
4084;SDS011;2057;50.858;6.572;2023-03-01T13:31:02;18.73;;;9.85;;
4084;SDS011;2057;50.858;6.572;2023-03-01T13:33:49;14.98;;;9.90;;
4084;SDS011;2057;50.858;6.572;2023-03-01T13:41:48;18.40;;;11.27;;
4084;SDS011;2057;50.858;6.572;2023-03-01T13:44:18;21.88;;;11.35;;
4084;SDS011;2057;50.858;6.572;2023-03-01T13:46:51;18.42;;;11.57;;
4084;SDS011;2057;50.858;6.572;2023-03-01T13:49:19;21.60;;;12.18;;
4084;SDS011;2057;50.858;6.572;2023-03-01T13:51:51;27.77;;;13.30;;
4084;SDS011;2057;50.858;6.572;2023-03-01T13:54:24;24.60;;;12.60;;
4084;SDS011;2057;50.858;6.572;2023-03-01T13:56:53;22.50;;;12.05;;
4084;SDS011;2057;50.858;6.572;2023-03-01T13:59:20;17.83;;;11.90;;
4084;SDS011;2057;50.858;6.572;2023-03-01T14:09:45;21.70;;;12.30;;
4084;SDS011;2057;50.858;6.572;2023-03-01T14:15:27;16.83;;;12.23;;
4084;SDS011;2057;50.858;6.572;2023-03-01T14:18:06;20.25;;;13.30;;
4084;SDS011;2057;50.858;6.572;2023-03-01T14:20:38;21.00;;;13.55;;
4084;SDS011;2057;50.858;6.572;2023-03-01T14:23:13;26.10;;;12.73;;
4084;SDS011;2057;50.858;6.572;2023-03-01T14:25:46;20.33;;;11.45;;
4084;SDS011;2057;50.858;6.572;2023-03-01T14:30:51;27.15;;;11.98;;
4084;SDS011;2057;50.858;6.572;2023-03-01T14:33:20;18.13;;;11.90;;
4084;SDS011;2057;50.858;6.572;2023-03-01T14:38:33;17.95;;;12.23;;
4084;SDS011;2057;50.858;6.572;2023-03-01T14:41:11;25.95;;;12.30;;
4084;SDS011;2057;50.858;6.572;2023-03-01T14:43:44;22.65;;;12.00;;
4084;SDS011;2057;50.858;6.572;2023-03-01T14:46:23;23.90;;;14.55;;
4084;SDS011;2057;50.858;6.572;2023-03-01T14:48:51;18.17;;;11.85;;
4084;SDS011;2057;50.858;6.572;2023-03-01T14:51:19;23.98;;;10.80;;
4084;SDS011;2057;50.858;6.572;2023-03-01T14:53:45;20.50;;;11.93;;
4084;SDS011;2057;50.858;6.572;2023-03-01T14:56:14;19.27;;;11.87;;
4084;SDS011;2057;50.858;6.572;2023-03-01T14:58:44;25.23;;;11.57;;
4084;SDS011;2057;50.858;6.572;2023-03-01T15:01:13;15.90;;;11.30;;
4084;SDS011;2057;50.858;6.572;2023-03-01T15:03:44;19.90;;;9.77;;
4084;SDS011;2057;50.858;6.572;2023-03-01T15:06:14;17.23;;;10.93;;
4084;SDS011;2057;50.858;6.572;2023-03-01T15:08:44;17.43;;;9.90;;
4084;SDS011;2057;50.858;6.572;2023-03-01T15:11:20;20.37;;;10.47;;
4084;SDS011;2057;50.858;6.572;2023-03-01T15:13:49;15.87;;;10.40;;
4084;SDS011;2057;50.858;6.572;2023-03-01T15:16:16;26.20;;;10.17;;
4084;SDS011;2057;50.858;6.572;2023-03-01T15:19:04;12.90;;;9.03;;
4084;SDS011;2057;50.858;6.572;2023-03-01T15:21:38;27.70;;;11.03;;
4084;SDS011;2057;50.858;6.572;2023-03-01T15:29:21;21.23;;;10.63;;
4084;SDS011;2057;50.858;6.572;2023-03-01T15:31:55;14.10;;;9.40;;
4084;SDS011;2057;50.858;6.572;2023-03-01T15:36:58;18.90;;;10.80;;
4084;SDS011;2057;50.858;6.572;2023-03-01T15:39:33;14.67;;;9.93;;
4084;SDS011;2057;50.858;6.572;2023-03-01T15:42:07;16.80;;;9.37;;
4084;SDS011;2057;50.858;6.572;2023-03-01T15:44:38;16.30;;;9.77;;
4084;SDS011;2057;50.858;6.572;2023-03-01T15:49:57;21.30;;;10.53;;
4084;SDS011;2057;50.858;6.572;2023-03-01T15:52:25;20.37;;;10.13;;
4084;SDS011;2057;50.858;6.572;2023-03-01T15:55:04;20.67;;;9.13;;
4084;SDS011;2057;50.858;6.572;2023-03-01T15:57:39;13.20;;;9.97;;
4084;SDS011;2057;50.858;6.572;2023-03-01T16:00:04;27.73;;;9.93;;
4084;SDS011;2057;50.858;6.572;2023-03-01T16:02:36;102.47;;;14.77;;
4084;SDS011;2057;50.858;6.572;2023-03-01T16:05:02;21.00;;;9.17;;
4084;SDS011;2057;50.858;6.572;2023-03-01T16:43:41;20.73;;;8.80;;
4084;SDS011;2057;50.858;6.572;2023-03-01T16:46:10;15.83;;;9.00;;
4084;SDS011;2057;50.858;6.572;2023-03-01T16:48:40;19.50;;;9.90;;
4084;SDS011;2057;50.858;6.572;2023-03-01T16:51:06;17.77;;;9.73;;
4084;SDS011;2057;50.858;6.572;2023-03-01T16:53:32;13.47;;;8.20;;
4084;SDS011;2057;50.858;6.572;2023-03-01T16:56:00;14.60;;;8.70;;
4084;SDS011;2057;50.858;6.572;2023-03-01T16:58:26;15.90;;;9.63;;
4084;SDS011;2057;50.858;6.572;2023-03-01T17:00:52;16.57;;;9.03;;
4084;SDS011;2057;50.858;6.572;2023-03-01T17:03:18;17.70;;;8.77;;
4084;SDS011;2057;50.858;6.572;2023-03-01T17:05:47;13.20;;;8.50;;
4084;SDS011;2057;50.858;6.572;2023-03-01T17:08:13;16.10;;;9.70;;
4084;SDS011;2057;50.858;6.572;2023-03-01T17:10:39;12.43;;;9.57;;
4084;SDS011;2057;50.858;6.572;2023-03-01T17:13:06;17.13;;;9.73;;
4084;SDS011;2057;50.858;6.572;2023-03-01T17:15:33;15.63;;;8.23;;
4084;SDS011;2057;50.858;6.572;2023-03-01T17:17:58;19.93;;;9.10;;
4084;SDS011;2057;50.858;6.572;2023-03-01T17:20:23;21.53;;;9.00;;
4084;SDS011;2057;50.858;6.572;2023-03-01T17:22:49;14.80;;;8.37;;
4084;SDS011;2057;50.858;6.572;2023-03-01T17:25:15;21.83;;;9.27;;
4084;SDS011;2057;50.858;6.572;2023-03-01T17:27:40;18.23;;;8.40;;
4084;SDS011;2057;50.858;6.572;2023-03-01T17:30:06;16.60;;;7.83;;
4084;SDS011;2057;50.858;6.572;2023-03-01T17:32:33;14.57;;;7.70;;
4084;SDS011;2057;50.858;6.572;2023-03-01T17:34:58;14.93;;;8.90;;
4084;SDS011;2057;50.858;6.572;2023-03-01T17:37:23;25.40;;;8.03;;
4084;SDS011;2057;50.858;6.572;2023-03-01T17:39:49;13.43;;;8.03;;
4084;SDS011;2057;50.858;6.572;2023-03-01T17:42:14;15.57;;;8.80;;
4084;SDS011;2057;50.858;6.572;2023-03-01T17:44:39;17.67;;;8.00;;
4084;SDS011;2057;50.858;6.572;2023-03-01T17:47:08;14.57;;;8.97;;
4084;SDS011;2057;50.858;6.572;2023-03-01T17:49:34;11.80;;;7.50;;
4084;SDS011;2057;50.858;6.572;2023-03-01T17:52:00;18.63;;;8.20;;
4084;SDS011;2057;50.858;6.572;2023-03-01T17:54:25;14.93;;;7.77;;